createdAt,value
2019-05-26T00:00:35.620Z,6.13
2019-05-26T00:03:04.690Z,7.30
2019-05-26T00:05:33.727Z,6.83
2019-05-26T00:08:02.729Z,8.27
2019-05-26T00:10:31.741Z,5.87
2019-05-26T00:13:01.126Z,6.23
2019-05-26T00:15:29.955Z,6.63
2019-05-26T00:17:58.981Z,11.43
2019-05-26T00:20:27.917Z,6.40
2019-05-26T00:22:56.849Z,6.33
2019-05-26T00:25:25.679Z,7.20
2019-05-26T00:27:54.948Z,9.03
2019-05-26T00:30:24.311Z,11.23
2019-05-26T00:32:53.242Z,7.43
2019-05-26T00:35:22.251Z,12.20
2019-05-26T00:37:51.114Z,10.40
2019-05-26T00:40:20.181Z,8.63
2019-05-26T00:42:49.116Z,7.50
2019-05-26T00:45:18.107Z,9.20
2019-05-26T00:47:47.211Z,7.93
2019-05-26T00:50:17.799Z,8.10
2019-05-26T00:52:47.026Z,8.37
2019-05-26T00:55:16.230Z,8.40
2019-05-26T00:57:45.338Z,8.27
2019-05-26T01:00:14.506Z,9.57
2019-05-26T01:02:43.397Z,9.00
2019-05-26T01:05:13.773Z,10.27
2019-05-26T01:07:42.800Z,10.60
2019-05-26T01:10:13.311Z,8.87
2019-05-26T01:12:42.254Z,9.77
2019-05-26T01:15:11.664Z,8.60
2019-05-26T01:17:40.575Z,9.10
2019-05-26T01:20:10.550Z,9.83
2019-05-26T01:22:39.679Z,9.40
2019-05-26T01:25:08.792Z,9.67
2019-05-26T01:27:37.829Z,10.00
2019-05-26T01:30:07.542Z,10.53
2019-05-26T01:32:36.486Z,10.70
2019-05-26T01:35:05.993Z,11.50
2019-05-26T01:37:35.431Z,10.87
2019-05-26T01:40:05.099Z,10.33
2019-05-26T01:42:34.034Z,11.23
2019-05-26T01:45:02.969Z,11.00
2019-05-26T01:47:31.847Z,10.97
2019-05-26T01:50:00.869Z,9.87
2019-05-26T01:52:30.406Z,11.20
2019-05-26T01:54:59.598Z,10.60
2019-05-26T01:57:28.512Z,11.03
2019-05-26T01:59:57.708Z,10.03
2019-05-26T02:02:26.660Z,10.13
2019-05-26T02:04:55.513Z,10.67
2019-05-26T02:07:24.405Z,11.30
2019-05-26T02:09:53.555Z,10.73
2019-05-26T02:12:22.381Z,11.90
2019-05-26T02:14:51.941Z,10.83
2019-05-26T02:17:20.950Z,12.40
2019-05-26T02:19:49.885Z,13.20
2019-05-26T02:22:18.778Z,12.27
2019-05-26T02:24:47.662Z,13.07
2019-05-26T02:27:16.731Z,11.80
2019-05-26T02:29:46.079Z,12.10
2019-05-26T02:32:14.936Z,11.97
2019-05-26T02:34:44.093Z,12.20
2019-05-26T02:37:12.950Z,12.40
2019-05-26T02:39:41.900Z,13.10
2019-05-26T02:42:10.892Z,13.60
2019-05-26T02:44:39.834Z,13.77
2019-05-26T02:47:08.855Z,13.77
2019-05-26T02:49:37.805Z,14.37
2019-05-26T02:52:06.777Z,14.33
2019-05-26T02:54:35.637Z,13.87
2019-05-26T02:57:04.755Z,14.57
2019-05-26T02:59:34.177Z,14.33
2019-05-26T03:02:04.458Z,15.57
2019-05-26T03:04:34.026Z,15.23
2019-05-26T03:07:03.350Z,15.40
2019-05-26T03:09:34.317Z,16.20
2019-05-26T03:12:04.370Z,16.83
2019-05-26T03:14:34.592Z,16.07
2019-05-26T03:17:04.403Z,17.90
2019-05-26T03:19:35.282Z,17.00
2019-05-26T03:22:05.216Z,17.03
2019-05-26T03:24:34.374Z,18.73
2019-05-26T03:27:03.360Z,18.60
2019-05-26T03:29:32.219Z,18.90
2019-05-26T03:32:01.242Z,19.40
2019-05-26T03:34:30.201Z,17.63
2019-05-26T03:36:59.069Z,18.53
2019-05-26T03:39:43.581Z,19.00
2019-05-26T03:41:58.499Z,18.30
2019-05-26T03:44:27.343Z,19.87
2019-05-26T03:46:56.231Z,19.43
2019-05-26T03:49:25.151Z,19.53
2019-05-26T03:51:54.073Z,20.57
2019-05-26T03:54:23.013Z,20.73
2019-05-26T03:56:51.884Z,22.77
2019-05-26T03:59:20.752Z,22.00
2019-05-26T04:01:50.250Z,21.40
2019-05-26T04:04:19.175Z,22.57
2019-05-26T04:06:48.332Z,22.07
2019-05-26T04:09:17.287Z,22.10
2019-05-26T04:11:46.433Z,22.90
2019-05-26T04:14:15.448Z,22.87
2019-05-26T04:16:44.613Z,22.93
2019-05-26T04:19:13.473Z,23.37
2019-05-26T04:21:42.302Z,22.23
2019-05-26T04:24:11.519Z,22.93
2019-05-26T04:26:40.385Z,23.47
2019-05-26T04:29:09.214Z,23.23
2019-05-26T04:31:38.142Z,23.50
2019-05-26T04:34:07.088Z,23.77
2019-05-26T04:36:36.214Z,24.37
2019-05-26T04:39:07.246Z,24.67
2019-05-26T04:41:36.516Z,24.10
2019-05-26T04:44:05.568Z,24.43
2019-05-26T04:46:34.428Z,24.30
2019-05-26T04:49:03.480Z,25.93
2019-05-26T04:51:32.500Z,24.33
2019-05-26T04:54:01.692Z,24.17
2019-05-26T04:56:30.643Z,22.80
2019-05-26T04:58:59.510Z,23.07
2019-05-26T05:01:28.652Z,22.50
2019-05-26T05:03:57.656Z,22.37
2019-05-26T05:06:26.542Z,22.87
2019-05-26T05:08:55.398Z,23.67
2019-05-26T05:11:24.590Z,22.67
2019-05-26T05:13:53.574Z,21.97
2019-05-26T05:16:22.444Z,22.73
2019-05-26T05:18:51.294Z,22.50
2019-05-26T05:21:20.237Z,21.57
2019-05-26T05:23:49.170Z,21.77
2019-05-26T05:26:18.105Z,23.77
2019-05-26T05:28:46.974Z,22.07
2019-05-26T05:31:15.919Z,21.80
2019-05-26T05:33:45.117Z,23.40
2019-05-26T05:36:14.276Z,22.77
2019-05-26T05:38:43.573Z,22.63
2019-05-26T05:41:12.501Z,22.77
2019-05-26T05:43:41.479Z,21.50
2019-05-26T05:46:10.410Z,21.90
2019-05-26T05:48:39.642Z,21.07
2019-05-26T05:51:08.723Z,20.97
2019-05-26T05:53:37.968Z,19.63
2019-05-26T05:56:07.032Z,16.97
2019-05-26T05:58:36.494Z,18.87
2019-05-26T06:01:05.705Z,18.27
2019-05-26T06:03:34.864Z,19.53
2019-05-26T06:06:03.801Z,18.93
2019-05-26T06:08:33.080Z,18.50
2019-05-26T06:11:15.521Z,16.60
2019-05-26T06:13:32.656Z,18.53
2019-05-26T06:16:01.630Z,17.37
2019-05-26T06:18:30.607Z,17.50
2019-05-26T06:20:59.829Z,15.60
2019-05-26T06:23:28.850Z,15.47
2019-05-26T06:25:57.842Z,15.17
2019-05-26T06:28:26.845Z,14.73
2019-05-26T06:30:55.862Z,15.30
2019-05-26T06:33:24.819Z,13.83
2019-05-26T06:35:53.749Z,15.47
2019-05-26T06:38:22.729Z,13.97
2019-05-26T06:40:51.938Z,13.13
2019-05-26T06:43:20.885Z,13.03
2019-05-26T06:45:49.997Z,12.97
2019-05-26T06:48:19.018Z,11.10
2019-05-26T06:50:48.133Z,10.67
2019-05-26T06:53:17.153Z,10.90
2019-05-26T06:55:46.431Z,10.43
2019-05-26T06:58:15.440Z,10.60
2019-05-26T07:00:44.475Z,10.33
2019-05-26T07:03:13.420Z,9.70
2019-05-26T07:05:42.391Z,9.37
2019-05-26T07:08:11.422Z,10.10
2019-05-26T07:10:41.011Z,9.37
2019-05-26T07:13:10.509Z,10.20
2019-05-26T07:15:39.476Z,8.77
2019-05-26T07:18:08.483Z,8.70
2019-05-26T07:20:37.666Z,8.80
2019-05-26T07:23:07.835Z,8.97
2019-05-26T07:25:37.333Z,7.73
2019-05-26T07:28:06.494Z,8.27
2019-05-26T07:30:35.533Z,7.47
2019-05-26T07:33:04.800Z,7.40
2019-05-26T07:35:33.913Z,7.43
2019-05-26T07:38:02.749Z,7.20
2019-05-26T07:40:31.730Z,7.70
2019-05-26T07:43:00.601Z,7.40
2019-05-26T07:45:29.670Z,7.57
2019-05-26T07:47:58.508Z,7.93
2019-05-26T07:50:27.511Z,8.00
2019-05-26T07:52:56.713Z,8.17
2019-05-26T07:55:26.049Z,6.83
2019-05-26T07:57:54.995Z,7.70
2019-05-26T08:00:23.965Z,7.70
2019-05-26T08:02:52.884Z,6.50
2019-05-26T08:05:22.287Z,6.70
2019-05-26T08:07:51.223Z,6.23
2019-05-26T08:10:20.425Z,6.50
2019-05-26T08:12:49.386Z,5.53
2019-05-26T08:15:18.964Z,5.17
2019-05-26T08:17:47.930Z,5.80
2019-05-26T08:20:18.062Z,6.10
2019-05-26T08:22:47.078Z,5.87
2019-05-26T08:25:17.638Z,5.83
2019-05-26T08:27:46.716Z,5.92
2019-05-26T08:30:17.733Z,5.92
2019-05-26T08:32:46.758Z,5.33
2019-05-26T08:35:19.267Z,5.87
2019-05-26T08:37:48.528Z,4.60
2019-05-26T08:40:18.136Z,7.90
2019-05-26T08:42:51.183Z,5.70
2019-05-26T08:45:22.434Z,5.62
2019-05-26T08:47:52.072Z,4.90
2019-05-26T08:50:21.994Z,4.85
2019-05-26T08:52:51.830Z,4.87
2019-05-26T08:55:21.311Z,4.60
2019-05-26T08:57:50.264Z,4.25
2019-05-26T09:00:19.647Z,4.40
2019-05-26T09:02:48.655Z,4.17
2019-05-26T09:05:19.162Z,3.58
2019-05-26T09:07:48.195Z,3.83
2019-05-26T09:10:17.346Z,3.30
2019-05-26T09:12:59.580Z,3.30
2019-05-26T09:15:17.328Z,3.05
2019-05-26T09:17:46.468Z,3.17
2019-05-26T09:20:15.937Z,3.30
2019-05-26T09:22:45.026Z,3.00
2019-05-26T09:25:14.280Z,2.70
2019-05-26T09:27:43.153Z,2.70
2019-05-26T09:30:12.218Z,3.00
2019-05-26T09:32:41.439Z,2.70
2019-05-26T09:35:10.553Z,2.90
2019-05-26T09:37:39.680Z,2.60
2019-05-26T09:40:09.590Z,2.43
2019-05-26T09:42:38.966Z,2.87
2019-05-26T09:45:08.932Z,2.93
2019-05-26T09:47:38.019Z,3.10
2019-05-26T09:50:08.354Z,2.47
2019-05-26T09:52:37.367Z,2.60
2019-05-26T09:55:07.359Z,2.10
2019-05-26T09:57:36.395Z,2.23
2019-05-26T10:00:06.938Z,2.40
2019-05-26T10:02:36.084Z,2.43
2019-05-26T10:05:05.625Z,2.23
2019-05-26T10:07:34.563Z,2.40
2019-05-26T10:10:03.967Z,2.00
2019-05-26T10:12:32.933Z,2.17
2019-05-26T10:15:01.886Z,1.93
2019-05-26T10:17:30.996Z,2.00
2019-05-26T10:20:00.067Z,2.53
2019-05-26T10:22:29.113Z,2.03
2019-05-26T10:24:58.114Z,1.97
2019-05-26T10:27:27.059Z,2.23
2019-05-26T10:29:55.937Z,1.93
2019-05-26T10:32:44.120Z,2.07
2019-05-26T10:35:13.618Z,2.17
2019-05-26T10:37:42.540Z,2.23
2019-05-26T10:40:13.843Z,2.10
2019-05-26T10:42:43.107Z,2.03
2019-05-26T10:45:12.798Z,2.50
2019-05-26T10:47:42.030Z,2.57
2019-05-26T10:50:11.540Z,2.10
2019-05-26T10:52:40.407Z,2.43
2019-05-26T10:55:11.086Z,2.30
2019-05-26T10:57:40.261Z,2.67
2019-05-26T11:00:09.992Z,2.57
2019-05-26T11:02:39.000Z,3.10
2019-05-26T11:05:09.243Z,2.43
2019-05-26T11:07:38.398Z,2.43
2019-05-26T11:10:08.411Z,2.40
2019-05-26T11:12:41.431Z,2.13
2019-05-26T11:15:13.629Z,1.93
2019-05-26T11:17:42.794Z,2.20
2019-05-26T11:20:12.654Z,2.30
2019-05-26T11:22:41.821Z,1.80
2019-05-26T11:25:12.907Z,2.00
2019-05-26T11:27:44.494Z,2.00
2019-05-26T11:30:13.987Z,1.93
2019-05-26T11:32:43.042Z,2.00
2019-05-26T11:35:12.242Z,2.20
2019-05-26T11:37:41.525Z,2.20
2019-05-26T11:40:12.251Z,2.13
2019-05-26T11:42:44.610Z,2.30
2019-05-26T11:45:12.625Z,2.40
2019-05-26T11:47:41.748Z,2.10
2019-05-26T11:50:12.654Z,2.17
2019-05-26T11:52:41.787Z,2.40
2019-05-26T11:55:10.933Z,2.37
2019-05-26T11:57:40.710Z,2.10
2019-05-26T12:00:12.435Z,2.00
2019-05-26T12:02:41.765Z,2.47
2019-05-26T12:05:11.079Z,2.00
2019-05-26T12:07:46.636Z,2.00
2019-05-26T12:10:17.286Z,1.77
2019-05-26T12:12:46.555Z,1.50
2019-05-26T12:15:16.651Z,1.50
2019-05-26T12:17:46.170Z,1.70
2019-05-26T12:20:15.370Z,1.60
2019-05-26T12:22:44.375Z,1.70
2019-05-26T12:25:13.485Z,1.73
2019-05-26T12:27:42.714Z,1.50
2019-05-26T12:30:12.204Z,1.87
2019-05-26T12:32:41.436Z,1.70
2019-05-26T12:35:11.153Z,1.90
2019-05-26T12:37:40.247Z,1.60
2019-05-26T12:40:10.162Z,1.83
2019-05-26T12:42:39.176Z,1.70
2019-05-26T12:45:09.208Z,1.70
2019-05-26T12:47:38.373Z,1.90
2019-05-26T12:50:08.382Z,1.80
2019-05-26T12:52:37.687Z,2.10
2019-05-26T12:55:09.505Z,2.00
2019-05-26T12:57:39.704Z,2.07
2019-05-26T13:00:09.857Z,2.03
2019-05-26T13:02:38.887Z,1.80
2019-05-26T13:05:09.349Z,2.20
2019-05-26T13:07:38.452Z,2.63
2019-05-26T13:10:09.589Z,2.30
2019-05-26T13:12:38.631Z,2.07
2019-05-26T13:15:09.189Z,2.13
2019-05-26T13:17:38.254Z,2.47
2019-05-26T13:20:07.803Z,2.60
2019-05-26T13:22:38.316Z,2.20
2019-05-26T13:25:08.271Z,2.30
2019-05-26T13:27:37.247Z,2.13
2019-05-26T13:30:08.185Z,2.40
2019-05-26T13:32:37.218Z,2.37
2019-05-26T13:35:07.136Z,2.60
2019-05-26T13:37:36.238Z,2.30
2019-05-26T13:40:05.993Z,2.63
2019-05-26T13:42:35.284Z,1.80
2019-05-26T13:45:19.396Z,2.60
2019-05-26T13:47:36.168Z,2.43
2019-05-26T13:50:05.985Z,2.50
2019-05-26T13:52:34.999Z,2.20
2019-05-26T13:55:04.444Z,1.93
2019-05-26T13:57:33.304Z,1.80
2019-05-26T14:00:02.813Z,2.53
2019-05-26T14:02:31.943Z,2.27
2019-05-26T14:05:01.367Z,2.20
2019-05-26T14:07:30.421Z,2.60
2019-05-26T14:09:59.491Z,2.67
2019-05-26T14:12:28.672Z,2.30
2019-05-26T14:14:57.814Z,2.20
2019-05-26T14:17:30.425Z,2.23
2019-05-26T14:20:00.926Z,2.40
2019-05-26T14:22:29.817Z,2.30
2019-05-26T14:25:00.573Z,2.23
2019-05-26T14:27:29.949Z,2.40
2019-05-26T14:29:59.659Z,2.40
2019-05-26T14:32:29.005Z,2.40
2019-05-26T14:34:58.086Z,2.70
2019-05-26T14:37:27.141Z,2.40
2019-05-26T14:39:56.212Z,2.33
2019-05-26T14:42:25.508Z,2.50
2019-05-26T14:44:54.471Z,2.30
2019-05-26T14:47:23.579Z,2.50
2019-05-26T14:49:52.721Z,2.73
2019-05-26T14:52:21.854Z,2.43
2019-05-26T14:54:50.939Z,2.50
2019-05-26T14:57:20.487Z,2.50
2019-05-26T14:59:49.749Z,2.53
2019-05-26T15:02:19.424Z,2.33
2019-05-26T15:04:48.510Z,2.00
2019-05-26T15:07:17.791Z,2.37
2019-05-26T15:09:47.602Z,2.47
2019-05-26T15:12:16.692Z,2.53
2019-05-26T15:14:45.974Z,2.50
2019-05-26T15:17:16.253Z,2.60
2019-05-26T15:19:45.588Z,2.80
2019-05-26T15:22:15.070Z,2.60
2019-05-26T15:24:44.600Z,2.30
2019-05-26T15:27:14.144Z,2.47
2019-05-26T15:29:43.793Z,2.37
2019-05-26T15:32:14.133Z,2.67
2019-05-26T15:34:43.715Z,2.83
2019-05-26T15:37:13.501Z,2.80
2019-05-26T15:39:43.011Z,3.17
2019-05-26T15:42:12.238Z,3.30
2019-05-26T15:44:41.179Z,2.80
2019-05-26T15:47:10.708Z,2.93
2019-05-26T15:49:39.814Z,2.90
2019-05-26T15:52:09.355Z,2.57
2019-05-26T15:54:38.382Z,2.80
2019-05-26T15:57:09.261Z,2.57
2019-05-26T15:59:38.450Z,2.40
2019-05-26T16:02:07.817Z,2.40
2019-05-26T16:04:37.302Z,2.77
2019-05-26T16:07:06.493Z,3.07
2019-05-26T16:09:43.342Z,2.30
2019-05-26T16:12:12.327Z,2.57
2019-05-26T16:14:54.010Z,2.67
2019-05-26T16:17:23.020Z,2.77
2019-05-26T16:19:51.963Z,2.70
2019-05-26T16:22:21.315Z,2.70
2019-05-26T16:24:50.484Z,2.57
2019-05-26T16:27:19.960Z,2.60
2019-05-26T16:29:48.947Z,3.13
2019-05-26T16:32:18.988Z,3.77
2019-05-26T16:34:48.171Z,2.67
2019-05-26T16:37:17.342Z,3.30
2019-05-26T16:39:46.612Z,2.80
2019-05-26T16:42:15.526Z,2.50
2019-05-26T16:44:44.467Z,3.03
2019-05-26T16:47:14.212Z,2.37
2019-05-26T16:49:43.474Z,2.50
2019-05-26T16:52:12.437Z,2.90
2019-05-26T16:54:41.402Z,3.43
2019-05-26T16:57:10.419Z,2.77
2019-05-26T16:59:39.650Z,2.57
2019-05-26T17:02:09.053Z,2.40
2019-05-26T17:04:38.533Z,2.70
2019-05-26T17:07:07.463Z,2.83
2019-05-26T17:09:36.398Z,4.73
2019-05-26T17:12:05.526Z,3.90
2019-05-26T17:14:34.534Z,2.80
2019-05-26T17:17:14.369Z,3.37
2019-05-26T17:19:34.524Z,6.00
2019-05-26T17:22:03.493Z,4.00
2019-05-26T17:24:32.671Z,3.87
2019-05-26T17:27:01.640Z,4.27
2019-05-26T17:29:30.591Z,3.70
2019-05-26T17:31:59.805Z,3.37
2019-05-26T17:34:29.071Z,3.33
2019-05-26T17:36:57.991Z,3.77
2019-05-26T17:39:26.826Z,3.50
2019-05-26T17:41:55.756Z,3.13
2019-05-26T17:44:24.815Z,2.87
2019-05-26T17:46:53.706Z,3.20
2019-05-26T17:49:23.044Z,4.40
2019-05-26T17:51:51.981Z,3.90
2019-05-26T17:54:21.371Z,3.10
2019-05-26T17:56:50.260Z,5.10
2019-05-26T17:59:19.198Z,3.03
2019-05-26T18:01:48.543Z,2.83
2019-05-26T18:04:18.044Z,4.17
2019-05-26T18:06:47.307Z,3.87
2019-05-26T18:09:16.984Z,3.30
2019-05-26T18:11:46.055Z,3.50
2019-05-26T18:14:15.602Z,3.17
2019-05-26T18:16:47.736Z,3.57
2019-05-26T18:19:16.946Z,2.77
2019-05-26T18:21:46.536Z,2.97
2019-05-26T18:24:15.888Z,2.80
2019-05-26T18:26:45.364Z,2.80
2019-05-26T18:29:14.375Z,2.40
2019-05-26T18:31:43.946Z,3.23
2019-05-26T18:34:13.492Z,4.37
2019-05-26T18:36:44.059Z,4.10
2019-05-26T18:39:13.320Z,3.13
2019-05-26T18:42:31.530Z,2.90
2019-05-26T18:45:02.054Z,3.90
2019-05-26T18:47:31.176Z,2.97
2019-05-26T18:50:00.645Z,3.23
2019-05-26T18:52:32.683Z,2.63
2019-05-26T18:55:02.061Z,2.87
2019-05-26T18:57:32.191Z,3.50
2019-05-26T19:00:01.719Z,3.77
2019-05-26T19:02:31.194Z,4.73
2019-05-26T19:05:03.216Z,3.60
2019-05-26T19:07:35.319Z,2.60
2019-05-26T19:10:07.581Z,4.33
2019-05-26T19:12:36.818Z,3.83
2019-05-26T19:15:06.562Z,4.27
2019-05-26T19:17:35.584Z,4.83
2019-05-26T19:20:15.609Z,3.83
2019-05-26T19:22:36.038Z,3.43
2019-05-26T19:25:05.210Z,2.73
2019-05-26T19:27:34.333Z,2.67
2019-05-26T19:30:03.506Z,3.30
2019-05-26T19:32:32.868Z,3.20
2019-05-26T19:35:01.838Z,3.10
2019-05-26T19:37:31.131Z,2.90
2019-05-26T19:40:02.531Z,2.90
2019-05-26T19:42:31.696Z,2.73
2019-05-26T19:45:00.908Z,2.90
2019-05-26T19:47:33.625Z,3.37
2019-05-26T19:50:02.927Z,3.40
2019-05-26T19:52:31.876Z,3.00
2019-05-26T19:55:01.061Z,3.40
2019-05-26T19:57:30.604Z,3.40
2019-05-26T19:59:59.801Z,3.23
2019-05-26T20:02:28.745Z,3.37
2019-05-26T20:05:01.097Z,3.77
2019-05-26T20:07:30.352Z,3.50
2019-05-26T20:10:02.221Z,3.67
2019-05-26T20:12:32.031Z,3.93
2019-05-26T20:15:03.924Z,4.03
2019-05-26T20:17:33.674Z,3.83
2019-05-26T20:20:03.130Z,4.50
2019-05-26T20:22:32.210Z,3.90
2019-05-26T20:25:01.439Z,4.00
2019-05-26T20:27:30.663Z,3.67
2019-05-26T20:30:00.110Z,4.13
2019-05-26T20:32:29.089Z,3.67
2019-05-26T20:34:57.984Z,3.40
2019-05-26T20:37:26.945Z,3.77
2019-05-26T20:39:55.876Z,3.70
2019-05-26T20:42:24.732Z,3.37
2019-05-26T20:44:54.071Z,3.37
2019-05-26T20:47:22.966Z,3.87
2019-05-26T20:49:51.864Z,3.47
2019-05-26T20:52:20.909Z,2.83
2019-05-26T20:54:49.814Z,3.97
2019-05-26T20:57:18.645Z,3.67
2019-05-26T20:59:48.091Z,3.97
2019-05-26T21:02:17.005Z,3.80
2019-05-26T21:04:45.908Z,3.20
2019-05-26T21:07:14.826Z,3.60
2019-05-26T21:09:43.675Z,3.73
2019-05-26T21:12:12.577Z,4.27
2019-05-26T21:14:41.399Z,4.07
2019-05-26T21:17:10.418Z,5.07
2019-05-26T21:19:39.331Z,5.90
2019-05-26T21:22:08.273Z,5.53
2019-05-26T21:24:37.244Z,5.57
2019-05-26T21:27:06.710Z,5.53
2019-05-26T21:29:35.807Z,5.83
2019-05-26T21:32:04.805Z,6.50
2019-05-26T21:34:33.705Z,5.83
2019-05-26T21:37:02.648Z,5.67
2019-05-26T21:39:31.470Z,5.90
2019-05-26T21:42:00.338Z,6.23
2019-05-26T21:44:29.413Z,6.00
2019-05-26T21:46:58.266Z,6.77
2019-05-26T21:49:27.093Z,6.47
2019-05-26T21:51:56.026Z,6.10
2019-05-26T21:54:25.070Z,6.33
2019-05-26T21:56:53.912Z,5.83
2019-05-26T21:59:22.791Z,5.23
2019-05-26T22:01:51.817Z,6.03
2019-05-26T22:04:20.817Z,5.90
2019-05-26T22:06:49.802Z,6.37
2019-05-26T22:09:18.723Z,6.30
2019-05-26T22:11:48.000Z,6.30
2019-05-26T22:14:17.156Z,5.93
2019-05-26T22:16:46.121Z,5.93
2019-05-26T22:19:15.067Z,6.13
2019-05-26T22:21:43.953Z,6.50
2019-05-26T22:24:13.105Z,6.63
2019-05-26T22:26:42.072Z,6.50
2019-05-26T22:29:11.056Z,6.07
2019-05-26T22:31:40.161Z,7.20
2019-05-26T22:34:09.135Z,7.13
2019-05-26T22:36:37.998Z,6.87
2019-05-26T22:39:07.264Z,7.17
2019-05-26T22:41:36.433Z,6.80
2019-05-26T22:44:05.422Z,6.67
2019-05-26T22:46:34.525Z,6.93
2019-05-26T22:49:03.769Z,6.00
2019-05-26T22:51:32.685Z,6.77
2019-05-26T22:54:01.659Z,5.90
2019-05-26T22:56:33.424Z,5.77
2019-05-26T22:59:02.475Z,5.97
2019-05-26T23:01:31.461Z,6.20
2019-05-26T23:04:19.481Z,5.23
2019-05-26T23:06:48.596Z,5.77
2019-05-26T23:09:17.439Z,5.63
2019-05-26T23:11:47.006Z,5.57
2019-05-26T23:14:15.878Z,5.87
2019-05-26T23:16:45.101Z,4.87
2019-05-26T23:19:19.278Z,5.53
2019-05-26T23:21:45.032Z,4.90
2019-05-26T23:24:13.945Z,4.93
2019-05-26T23:26:42.810Z,5.37
2019-05-26T23:29:11.711Z,5.23
2019-05-26T23:31:41.212Z,4.73
2019-05-26T23:34:10.396Z,5.30
2019-05-26T23:36:39.389Z,4.50
2019-05-26T23:39:08.629Z,4.57
2019-05-26T23:41:37.603Z,4.90
2019-05-26T23:44:06.506Z,4.13
2019-05-26T23:46:35.399Z,4.23
2019-05-26T23:49:04.286Z,3.90
2019-05-26T23:51:33.119Z,4.53
2019-05-26T23:54:02.052Z,3.83
2019-05-26T23:56:31.081Z,4.23
2019-05-26T23:59:00.040Z,3.87
